Airfield :
LOGIN :

Register | Disclaimer

   EN    FR    IT 

 










Legend :    VFR   Marginal VFR   IFR   Intensive IFR   Very Intensive IFR
Visi :
Ceiling :
>= 8 km
>= 3000ft
5 to 8 km
1000 to 3000 ft
1500m to 5 km
500 to 1000 ft
800 to 1500m
200 to 500 ft
< 800m
< 200 ft
Symbols :   Thunderstorms  Fog  Heavy snow  Heavy precipitations  Wind > 20 kt
SIGMETs :     Misc.  Thunderstorms  Icing  Turbulence  Mountain Waves  Volcanic Ashes






- Airport Elevation : 446 ft
- IATA code : VNE


LFRV - Vannes-Meucon

CURRENT METAR :
  • 201500Z AUTO 17018KT 150V210 7000 SCT009/// BKN016/// BKN041/// ///TCU 10/09 Q0989

EXPIRED METARs :
  • 201430Z AUTO 17016KT 8000 BKN013 OVC056 11/09 Q0990
  • 201400Z AUTO 18014KT 150V210 9000 SCT013 OVC052 11/09 Q0990
  • 201330Z AUTO 18013KT 8000 BKN011 BKN016 BKN048 11/09 Q0991
  • 201300Z AUTO 17014KT 8000 FEW010 SCT014 OVC049 10/09 Q0991
  • 201230Z AUTO 17012KT 7000 -RA FEW008 SCT012 BKN040 10/09 Q0992

TAF N/A



MET'MAP, your aeronautical weather chart ! - Copyright ORBIFLY December 2007 - Disclaimer

ORBIFLY MET'MAP TEAM :

Programming & Development : Alexandra Zaïnal
Concept & original design : Baudouin d'Aumeries
Assistance for programming : Marc-Olivier Méhu
Technical & hardware support : Manuel Goepfert

Contact : metmap@orbifly.com




SOURCES & CREDITS :

   NOAA